createdAt,value
2019-02-26T00:00:47.017Z,3.60
2019-02-26T00:03:14.263Z,3.57
2019-02-26T00:05:43.528Z,3.42
2019-02-26T00:08:16.996Z,3.61
2019-02-26T00:10:43.787Z,3.57
2019-02-26T00:13:13.032Z,3.61
2019-02-26T00:15:43.200Z,3.48
2019-02-26T00:18:13.974Z,3.53
2019-02-26T00:20:44.410Z,3.59
2019-02-26T00:23:13.686Z,3.49
2019-02-26T00:25:42.934Z,3.40
2019-02-26T00:28:13.160Z,3.55
2019-02-26T00:30:43.198Z,3.54
2019-02-26T00:33:12.459Z,3.50
2019-02-26T00:35:43.778Z,3.48
2019-02-26T00:41:35.780Z,3.51
2019-02-26T00:44:06.539Z,3.17
2019-02-26T00:46:37.039Z,3.14
2019-02-26T00:49:07.650Z,3.21
2019-02-26T00:51:39.009Z,3.20
2019-02-26T00:54:08.091Z,3.28
2019-02-26T00:56:38.619Z,3.26
2019-02-26T00:59:08.352Z,3.41
2019-02-26T01:01:37.631Z,3.21
2019-02-26T01:04:07.229Z,3.42
2019-02-26T01:06:36.488Z,3.34
2019-02-26T01:09:10.708Z,3.30
2019-02-26T01:11:38.997Z,3.19
2019-02-26T01:14:08.243Z,2.93
2019-02-26T01:16:39.317Z,2.96
2019-02-26T01:19:10.338Z,2.79
2019-02-26T01:21:39.503Z,2.59
2019-02-26T01:24:08.751Z,2.57
2019-02-26T01:26:38.166Z,2.72
2019-02-26T01:29:07.416Z,2.63
2019-02-26T01:31:36.667Z,2.60
2019-02-26T01:34:05.933Z,2.36
2019-02-26T01:36:35.204Z,2.23
2019-02-26T01:39:09.310Z,2.02
2019-02-26T01:41:41.335Z,1.96
2019-02-26T01:44:09.014Z,2.26
2019-02-26T01:46:38.900Z,2.03
2019-02-26T01:49:09.604Z,2.15
2019-02-26T01:51:38.836Z,2.04
2019-02-26T01:54:09.951Z,2.36
2019-02-26T01:56:39.094Z,2.29
2019-02-26T01:59:08.335Z,2.20
2019-02-26T02:01:40.018Z,1.97
2019-02-26T02:04:10.501Z,2.09
2019-02-26T02:06:41.234Z,1.88
2019-02-26T02:09:13.262Z,1.93
2019-02-26T02:11:41.607Z,1.96
2019-02-26T02:14:12.633Z,2.08
2019-02-26T02:16:41.826Z,2.04
2019-02-26T02:19:15.511Z,2.02
2019-02-26T02:21:43.265Z,1.64
2019-02-26T02:24:13.279Z,1.79
2019-02-26T02:26:47.520Z,2.06
2019-02-26T02:29:16.535Z,1.90
2019-02-26T02:31:45.535Z,1.88
2019-02-26T02:34:15.694Z,1.85
2019-02-26T02:36:44.950Z,1.95
2019-02-26T02:39:15.657Z,1.94
2019-02-26T02:41:47.973Z,1.91
2019-02-26T02:44:17.948Z,1.67
2019-02-26T02:46:47.161Z,1.59
2019-02-26T02:49:17.904Z,1.61
2019-02-26T02:51:47.338Z,1.59
2019-02-26T02:54:18.597Z,1.69
2019-02-26T02:56:47.628Z,1.78
2019-02-26T02:59:16.883Z,1.74
2019-02-26T03:01:49.016Z,1.71
2019-02-26T03:04:19.500Z,1.64
2019-02-26T03:06:50.063Z,1.72
2019-02-26T03:09:19.693Z,1.71
2019-02-26T03:11:51.908Z,1.69
2019-02-26T03:14:20.080Z,1.79
2019-02-26T03:16:51.389Z,1.74
2019-02-26T03:19:20.307Z,1.80
2019-02-26T03:21:51.917Z,1.74
2019-02-26T03:24:25.054Z,1.50
2019-02-26T03:26:51.570Z,1.74
2019-02-26T03:29:20.838Z,1.75
2019-02-26T03:31:54.841Z,1.81
2019-02-26T03:34:25.150Z,1.65
2019-02-26T03:36:52.038Z,1.61
2019-02-26T03:39:21.341Z,1.68
2019-02-26T03:41:51.565Z,1.69
2019-02-26T03:44:21.568Z,1.71
2019-02-26T03:46:50.834Z,1.62
2019-02-26T03:49:20.092Z,1.32
2019-02-26T03:51:49.350Z,1.38
2019-02-26T03:54:18.623Z,1.17
2019-02-26T03:56:47.895Z,1.36
2019-02-26T03:59:17.138Z,1.29
2019-02-26T04:01:46.381Z,1.46
2019-02-26T04:04:15.747Z,1.29
2019-02-26T04:06:47.138Z,1.27
2019-02-26T04:09:17.243Z,1.21
2019-02-26T04:11:49.663Z,1.24
2019-02-26T04:14:20.161Z,1.06
2019-02-26T04:16:49.315Z,0.86
2019-02-26T04:19:18.656Z,1.14
2019-02-26T04:22:26.198Z,1.19
2019-02-26T04:25:00.663Z,1.02
2019-02-26T04:28:01.683Z,1.20
2019-02-26T04:31:02.592Z,1.14
2019-02-26T04:33:55.262Z,1.27
2019-02-26T04:37:01.430Z,1.31
2019-02-26T04:40:14.276Z,1.19
2019-02-26T04:43:30.420Z,1.08
2019-02-26T04:46:39.556Z,1.06
2019-02-26T04:49:08.495Z,1.21
2019-02-26T04:51:39.896Z,1.14
2019-02-26T04:54:08.735Z,1.17
2019-02-26T04:56:40.162Z,1.11
2019-02-26T04:59:09.827Z,0.99
2019-02-26T05:01:40.009Z,0.96
2019-02-26T05:04:09.247Z,0.96
2019-02-26T05:06:38.544Z,0.81
2019-02-26T05:09:08.494Z,1.12
2019-02-26T05:11:40.769Z,1.02
2019-02-26T05:14:11.684Z,1.10
2019-02-26T05:16:40.830Z,0.98
2019-02-26T05:19:10.609Z,1.02
2019-02-26T05:21:41.288Z,1.19
2019-02-26T05:24:13.062Z,1.17
2019-02-26T05:26:41.515Z,1.18
2019-02-26T05:29:13.393Z,1.16
2019-02-26T05:31:43.283Z,1.19
2019-02-26T05:34:15.207Z,1.20
2019-02-26T05:36:46.105Z,1.16
2019-02-26T05:39:18.078Z,1.23
2019-02-26T05:41:45.597Z,1.16
2019-02-26T05:44:14.969Z,1.24
2019-02-26T05:46:44.214Z,1.12
2019-02-26T05:49:16.183Z,1.04
2019-02-26T05:51:45.038Z,0.99
2019-02-26T05:54:17.980Z,0.87
2019-02-26T05:56:49.744Z,0.91
2019-02-26T05:59:21.811Z,1.00
2019-02-26T06:01:54.814Z,1.22
2019-02-26T06:04:23.584Z,1.23
2019-02-26T06:06:56.381Z,1.20
2019-02-26T06:09:28.551Z,1.14
2019-02-26T06:11:57.947Z,1.21
2019-02-26T06:14:31.232Z,1.25
2019-02-26T06:17:01.364Z,1.26
2019-02-26T06:19:57.614Z,0.99
2019-02-26T06:22:29.638Z,1.19
2019-02-26T06:25:02.817Z,1.58
2019-02-26T06:27:30.841Z,1.35
2019-02-26T06:30:03.169Z,1.25
2019-02-26T06:32:32.845Z,1.00
2019-02-26T06:35:06.128Z,1.11
2019-02-26T06:37:35.946Z,1.24
2019-02-26T06:40:07.482Z,0.94
2019-02-26T06:42:38.053Z,1.06
2019-02-26T06:45:10.887Z,1.19
2019-02-26T06:47:40.857Z,1.29
2019-02-26T06:50:13.182Z,1.35
2019-02-26T06:52:44.729Z,1.32
2019-02-26T06:55:13.972Z,1.49
2019-02-26T06:57:47.132Z,1.68
2019-02-26T07:00:26.999Z,1.69
2019-02-26T07:02:56.087Z,2.01
2019-02-26T07:05:25.338Z,2.30
2019-02-26T07:07:56.933Z,2.13
2019-02-26T07:10:28.263Z,2.38
2019-02-26T07:12:56.829Z,2.52
2019-02-26T07:15:28.773Z,2.46
2019-02-26T07:18:00.095Z,2.60
2019-02-26T07:20:34.167Z,2.91
2019-02-26T07:22:59.232Z,2.96
2019-02-26T07:25:28.486Z,3.17
2019-02-26T07:27:58.923Z,3.20
2019-02-26T07:30:28.764Z,3.37
2019-02-26T07:32:58.023Z,3.37
2019-02-26T07:35:28.754Z,3.88
2019-02-26T07:37:59.497Z,3.89
2019-02-26T07:40:30.533Z,4.11
2019-02-26T07:43:00.297Z,4.12
2019-02-26T07:45:30.392Z,4.06
2019-02-26T07:48:01.059Z,4.37
2019-02-26T07:50:36.932Z,4.51
2019-02-26T07:53:02.527Z,4.59
2019-02-26T07:55:32.871Z,4.87
2019-02-26T07:58:02.894Z,5.10
2019-02-26T08:00:32.878Z,5.23
2019-02-26T08:03:04.667Z,5.46
2019-02-26T08:05:34.084Z,5.64
2019-02-26T08:08:03.377Z,5.83
2019-02-26T08:10:35.171Z,6.02
2019-02-26T08:13:05.697Z,6.38
2019-02-26T08:15:35.228Z,6.70
2019-02-26T08:18:05.677Z,6.94
2019-02-26T08:20:35.691Z,7.09
2019-02-26T08:23:05.929Z,7.05
2019-02-26T08:25:35.204Z,6.86
2019-02-26T08:28:04.513Z,7.09
2019-02-26T08:30:33.765Z,7.32
2019-02-26T08:33:05.255Z,8.48
2019-02-26T08:35:34.102Z,9.97
2019-02-26T08:38:05.653Z,10.77
2019-02-26T08:40:34.366Z,11.35
2019-02-26T08:43:03.641Z,12.71
2019-02-26T08:45:34.253Z,12.12
2019-02-26T08:48:03.528Z,10.59
2019-02-26T08:50:35.757Z,11.24
2019-02-26T08:53:03.793Z,10.29
2019-02-26T08:55:33.176Z,9.04
2019-02-26T08:58:02.491Z,8.78
2019-02-26T09:00:31.746Z,9.83
2019-02-26T09:03:01.013Z,10.11
2019-02-26T09:05:34.001Z,10.54
2019-02-26T09:08:01.322Z,11.00
2019-02-26T09:10:30.696Z,10.49
2019-02-26T09:13:00.016Z,11.40
2019-02-26T09:15:31.365Z,11.11
2019-02-26T09:18:00.309Z,10.08
2019-02-26T09:20:29.580Z,10.99
2019-02-26T09:23:01.331Z,10.63
2019-02-26T09:25:31.549Z,12.00
2019-02-26T09:28:02.037Z,12.46
2019-02-26T09:30:33.401Z,12.62
2019-02-26T09:33:03.384Z,12.43
2019-02-26T09:35:33.320Z,13.89
2019-02-26T09:38:02.630Z,13.49
2019-02-26T09:40:34.200Z,14.18
2019-02-26T09:43:02.865Z,13.55
2019-02-26T09:45:32.145Z,14.80
2019-02-26T09:48:01.427Z,14.34
2019-02-26T09:50:30.696Z,13.73
2019-02-26T09:52:59.965Z,14.20
2019-02-26T09:55:29.221Z,14.93
2019-02-26T09:57:58.533Z,14.39
2019-02-26T10:00:29.467Z,13.78
2019-02-26T10:02:58.994Z,15.91
2019-02-26T10:05:28.259Z,14.23
2019-02-26T10:08:00.031Z,14.89
2019-02-26T10:10:31.111Z,15.43
2019-02-26T10:13:02.181Z,16.12
2019-02-26T10:15:32.316Z,16.65
2019-02-26T10:18:04.865Z,17.08
2019-02-26T10:20:35.563Z,16.47
2019-02-26T10:23:06.457Z,17.07
2019-02-26T10:25:38.588Z,17.47
2019-02-26T10:28:09.648Z,17.39
2019-02-26T10:30:40.964Z,17.21
2019-02-26T10:33:09.259Z,16.45
2019-02-26T10:35:41.379Z,17.21
2019-02-26T10:38:11.526Z,17.11
2019-02-26T10:40:50.653Z,16.59
2019-02-26T10:43:11.590Z,18.21
2019-02-26T10:45:44.170Z,18.93
2019-02-26T10:48:13.707Z,19.44
2019-02-26T10:50:46.936Z,19.70
2019-02-26T10:53:18.879Z,19.08
2019-02-26T10:55:45.341Z,19.85
2019-02-26T10:58:14.942Z,20.24
2019-02-26T11:00:45.512Z,18.53
2019-02-26T11:03:15.463Z,17.95
2019-02-26T11:05:48.645Z,18.33
2019-02-26T11:08:16.816Z,18.14
2019-02-26T11:10:47.886Z,17.15
2019-02-26T11:13:18.226Z,18.20
2019-02-26T11:15:50.862Z,18.26
2019-02-26T11:18:21.132Z,18.42
2019-02-26T11:20:55.222Z,17.74
2019-02-26T11:23:30.360Z,17.67
2019-02-26T11:25:53.477Z,18.65
2019-02-26T11:28:27.258Z,18.59
2019-02-26T11:30:54.969Z,18.50
2019-02-26T11:33:25.045Z,17.77
2019-02-26T11:35:54.416Z,18.11
2019-02-26T11:38:23.681Z,18.36
2019-02-26T11:40:52.974Z,17.78
2019-02-26T11:43:23.919Z,18.30
2019-02-26T11:45:53.267Z,18.42
2019-02-26T11:48:23.369Z,18.73
2019-02-26T11:50:53.676Z,18.80
2019-02-26T11:53:22.965Z,19.09
2019-02-26T11:55:54.492Z,19.79
2019-02-26T11:58:24.265Z,19.99
2019-02-26T12:00:57.358Z,19.91
2019-02-26T12:03:31.088Z,20.88
2019-02-26T12:06:01.978Z,21.06
2019-02-26T12:08:30.391Z,20.63
2019-02-26T12:11:03.637Z,20.73
2019-02-26T12:13:30.684Z,21.02
2019-02-26T12:15:59.960Z,20.90
2019-02-26T12:18:29.249Z,21.94
2019-02-26T12:21:00.114Z,22.75
2019-02-26T12:23:29.511Z,21.95
2019-02-26T12:26:01.095Z,22.70
2019-02-26T12:28:34.155Z,22.21
2019-02-26T12:31:02.256Z,23.32
2019-02-26T12:33:32.562Z,22.37
2019-02-26T12:36:04.406Z,21.94
2019-02-26T12:38:36.590Z,22.44
2019-02-26T12:41:08.209Z,22.35
2019-02-26T12:43:36.624Z,22.55
2019-02-26T12:46:08.454Z,22.90
2019-02-26T12:48:40.488Z,21.65
2019-02-26T12:51:08.167Z,22.11
2019-02-26T12:53:49.061Z,21.32
2019-02-26T12:56:16.238Z,22.91
2019-02-26T12:58:48.467Z,23.01
2019-02-26T13:01:16.778Z,22.34
2019-02-26T13:03:49.764Z,22.57
2019-02-26T13:06:18.676Z,22.40
2019-02-26T13:08:50.506Z,21.59
2019-02-26T13:11:20.981Z,21.35
2019-02-26T13:13:52.596Z,21.30
2019-02-26T13:16:21.185Z,21.34
2019-02-26T13:18:51.667Z,20.14
2019-02-26T13:21:21.523Z,19.73
2019-02-26T13:23:50.810Z,19.05
2019-02-26T13:26:22.400Z,19.36
2019-02-26T13:28:52.950Z,18.83
2019-02-26T13:31:22.785Z,18.32
2019-02-26T13:33:52.383Z,18.13
2019-02-26T13:36:22.164Z,18.32
2019-02-26T13:38:51.481Z,17.93
2019-02-26T13:43:52.390Z,17.67
2019-02-26T13:46:21.746Z,17.69
2019-02-26T13:48:50.999Z,17.90
2019-02-26T13:51:20.282Z,17.69
2019-02-26T13:53:49.532Z,17.87
2019-02-26T13:56:18.842Z,17.87
2019-02-26T13:58:48.145Z,17.80
2019-02-26T14:01:17.562Z,17.76
2019-02-26T14:03:46.944Z,17.79
2019-02-26T14:06:16.235Z,17.47
2019-02-26T14:08:45.537Z,17.47
2019-02-26T14:11:14.864Z,17.77
2019-02-26T14:13:45.235Z,17.72
2019-02-26T14:16:14.543Z,17.75
2019-02-26T14:18:43.810Z,17.64
2019-02-26T14:21:13.370Z,17.40
2019-02-26T14:23:42.615Z,17.49
2019-02-26T14:26:11.984Z,17.23
2019-02-26T14:28:41.260Z,17.34
2019-02-26T14:31:10.527Z,17.34
2019-02-26T14:33:39.831Z,17.10
2019-02-26T14:36:10.910Z,17.23
2019-02-26T14:38:40.194Z,17.14
2019-02-26T14:41:09.519Z,17.20
2019-02-26T14:43:38.778Z,17.02
2019-02-26T14:46:08.079Z,17.09
2019-02-26T14:48:37.331Z,16.98
2019-02-26T14:51:06.654Z,17.06
2019-02-26T14:53:35.919Z,16.94
2019-02-26T14:56:05.458Z,16.84
2019-02-26T14:58:34.775Z,16.83
2019-02-26T15:01:04.341Z,16.89
2019-02-26T15:03:33.644Z,16.79
2019-02-26T15:06:02.910Z,16.94
2019-02-26T15:08:32.227Z,16.85
2019-02-26T15:11:01.499Z,16.81
2019-02-26T15:13:30.752Z,16.90
2019-02-26T15:16:00.045Z,16.66
2019-02-26T15:18:29.314Z,16.82
2019-02-26T15:20:58.644Z,17.00
2019-02-26T15:23:27.908Z,16.76
2019-02-26T15:25:57.175Z,16.68
2019-02-26T15:28:26.469Z,16.66
2019-02-26T15:30:55.946Z,16.73
2019-02-26T15:33:25.206Z,16.60
2019-02-26T15:35:54.467Z,16.55
2019-02-26T15:38:23.765Z,16.48
2019-02-26T15:40:53.358Z,16.56
2019-02-26T15:43:24.508Z,16.43
2019-02-26T15:45:53.801Z,16.32
2019-02-26T15:48:23.062Z,16.03
2019-02-26T15:50:52.350Z,15.94
2019-02-26T15:53:23.779Z,15.91
2019-02-26T15:55:52.695Z,15.95
2019-02-26T15:58:21.949Z,15.94
2019-02-26T16:09:42.301Z,15.70
2019-02-26T16:12:11.560Z,15.54
2019-02-26T16:14:40.846Z,15.41
2019-02-26T16:17:10.766Z,15.28
2019-02-26T16:19:40.534Z,15.17
2019-02-26T16:22:13.285Z,15.10
2019-02-26T16:24:44.843Z,15.03
2019-02-26T16:27:16.866Z,15.07
2019-02-26T16:30:10.021Z,14.97
2019-02-26T16:32:40.478Z,14.79
2019-02-26T16:35:12.386Z,14.70
2019-02-26T16:37:44.613Z,14.56
2019-02-26T16:40:16.353Z,14.49
2019-02-26T16:42:47.828Z,14.44
2019-02-26T16:45:20.814Z,14.29
2019-02-26T16:47:52.215Z,14.21
2019-02-26T16:50:24.115Z,14.11
2019-02-26T16:52:53.445Z,14.00
2019-02-26T16:55:22.735Z,13.87
2019-02-26T16:57:51.996Z,13.80
2019-02-26T17:00:22.516Z,13.65
2019-02-26T17:02:51.789Z,13.50
2019-02-26T17:05:21.108Z,13.34
2019-02-26T17:07:50.377Z,13.28
2019-02-26T17:10:19.916Z,13.15
2019-02-26T17:12:54.076Z,13.03
2019-02-26T17:15:26.980Z,12.89
2019-02-26T17:17:56.413Z,12.83
2019-02-26T17:20:26.474Z,12.73
2019-02-26T17:22:56.739Z,12.62
2019-02-26T17:25:28.399Z,12.53
2019-02-26T17:27:57.043Z,12.43
2019-02-26T17:30:29.454Z,12.32
2019-02-26T17:33:00.168Z,12.24
2019-02-26T17:35:29.731Z,11.96
2019-02-26T17:38:00.443Z,11.74
2019-02-26T17:40:30.806Z,11.63
2019-02-26T17:43:00.358Z,11.63
2019-02-26T17:45:29.665Z,11.64
2019-02-26T17:48:00.514Z,11.59
2019-02-26T17:50:31.892Z,11.49
2019-02-26T17:53:01.657Z,11.46
2019-02-26T17:55:31.579Z,11.31
2019-02-26T17:58:01.073Z,11.29
2019-02-26T18:00:36.394Z,11.20
2019-02-26T18:03:07.297Z,10.99
2019-02-26T18:05:47.274Z,10.71
2019-02-26T18:08:27.271Z,10.71
2019-02-26T18:10:57.181Z,10.72
2019-02-26T18:13:28.926Z,10.65
2019-02-26T18:15:59.224Z,10.56
2019-02-26T18:18:29.425Z,10.53
2019-02-26T18:20:59.160Z,10.49
2019-02-26T18:23:28.418Z,10.45
2019-02-26T18:25:57.874Z,10.26
2019-02-26T18:28:27.380Z,9.96
2019-02-26T18:30:56.673Z,10.12
2019-02-26T18:33:27.647Z,9.99
2019-02-26T18:35:56.934Z,10.05
2019-02-26T18:38:26.299Z,9.95
2019-02-26T18:40:55.684Z,9.95
2019-02-26T18:43:24.990Z,9.94
2019-02-26T18:45:56.210Z,9.88
2019-02-26T18:48:27.353Z,9.88
2019-02-26T18:50:59.668Z,9.84
2019-02-26T18:53:30.458Z,9.77
2019-02-26T18:56:04.294Z,9.75
2019-02-26T18:58:36.038Z,9.66
2019-02-26T19:01:06.719Z,9.36
2019-02-26T19:03:39.366Z,9.32
2019-02-26T19:06:10.909Z,9.29
2019-02-26T19:08:41.752Z,9.29
2019-02-26T19:11:16.686Z,9.23
2019-02-26T19:13:44.989Z,8.84
2019-02-26T19:16:21.179Z,8.91
2019-02-26T19:18:52.998Z,8.80
2019-02-26T19:21:23.873Z,8.97
2019-02-26T19:23:54.787Z,9.04
2019-02-26T19:26:25.695Z,9.04
2019-02-26T19:28:56.782Z,8.99
2019-02-26T19:31:28.869Z,8.78
2019-02-26T19:33:58.498Z,8.63
2019-02-26T19:36:34.938Z,8.49
2019-02-26T19:39:18.239Z,8.53
2019-02-26T19:41:55.609Z,8.56
2019-02-26T19:44:35.894Z,8.42
2019-02-26T19:47:15.968Z,8.44
2019-02-26T19:49:58.851Z,8.54
2019-02-26T19:52:57.204Z,8.39
2019-02-26T19:55:54.469Z,8.24
2019-02-26T19:58:34.165Z,8.31
2019-02-26T20:01:18.442Z,8.35
2019-02-26T20:04:02.858Z,8.15
2019-02-26T20:06:40.253Z,8.13
2019-02-26T20:09:41.615Z,8.33
2019-02-26T20:12:11.744Z,8.29
2019-02-26T20:14:42.390Z,8.16
2019-02-26T20:17:14.954Z,7.90
2019-02-26T20:19:46.212Z,7.99
2019-02-26T20:22:15.710Z,7.89
2019-02-26T20:24:48.235Z,7.87
2019-02-26T20:27:21.596Z,7.90
2019-02-26T20:29:48.650Z,7.66
2019-02-26T20:32:19.016Z,7.62
2019-02-26T20:34:49.874Z,7.79
2019-02-26T20:37:21.952Z,7.55
2019-02-26T20:39:53.800Z,7.58
2019-02-26T20:42:23.409Z,7.69
2019-02-26T20:44:59.015Z,7.64
2019-02-26T20:47:24.214Z,7.66
2019-02-26T20:49:54.039Z,7.46
2019-02-26T20:52:23.379Z,7.42
2019-02-26T20:54:52.699Z,7.45
2019-02-26T20:57:24.467Z,7.31
2019-02-26T20:59:53.803Z,7.23
2019-02-26T21:02:23.109Z,7.13
2019-02-26T21:04:53.827Z,7.06
2019-02-26T21:07:24.492Z,7.13
2019-02-26T21:10:03.339Z,6.98
2019-02-26T21:12:28.634Z,7.09
2019-02-26T21:14:56.212Z,7.26
2019-02-26T21:17:26.262Z,7.18
2019-02-26T21:19:55.569Z,7.04
2019-02-26T21:22:27.040Z,7.26
2019-02-26T21:24:57.857Z,7.41
2019-02-26T21:27:27.846Z,7.37
2019-02-26T21:29:59.264Z,7.41
2019-02-26T21:32:28.521Z,7.45
2019-02-26T21:34:59.218Z,7.35
2019-02-26T21:37:32.625Z,7.43
2019-02-26T21:39:59.527Z,7.32
2019-02-26T21:42:29.580Z,7.42
2019-02-26T21:44:58.950Z,7.51
2019-02-26T21:47:28.446Z,7.44
2019-02-26T21:49:57.743Z,7.32
2019-02-26T21:52:27.167Z,7.38
2019-02-26T21:54:58.133Z,7.29
2019-02-26T21:57:27.647Z,7.22
2019-02-26T21:59:56.908Z,7.09
2019-02-26T22:02:26.423Z,7.30
2019-02-26T22:04:55.698Z,7.20
2019-02-26T22:07:25.201Z,7.23
2019-02-26T22:09:54.499Z,7.01
2019-02-26T22:12:24.113Z,6.88
2019-02-26T22:14:54.072Z,6.99
2019-02-26T22:17:25.211Z,7.10
2019-02-26T22:19:54.309Z,6.83
2019-02-26T22:22:26.225Z,6.94
2019-02-26T22:24:57.781Z,6.95
2019-02-26T22:27:27.258Z,7.08
2019-02-26T22:29:56.669Z,7.01
2019-02-26T22:32:27.806Z,7.06
2019-02-26T22:34:58.384Z,7.06
2019-02-26T22:37:27.646Z,7.17
2019-02-26T22:39:57.074Z,7.27
2019-02-26T22:42:26.598Z,7.33
2019-02-26T22:44:56.180Z,7.45
2019-02-26T22:47:25.449Z,7.38
2019-02-26T22:49:54.742Z,7.18
2019-02-26T22:52:24.757Z,7.18
2019-02-26T22:54:55.632Z,7.17
2019-02-26T22:57:24.913Z,7.25
2019-02-26T22:59:54.156Z,7.32
2019-02-26T23:02:24.329Z,7.33
2019-02-26T23:04:54.312Z,7.27
2019-02-26T23:07:24.265Z,7.27
2019-02-26T23:09:55.286Z,7.26
2019-02-26T23:12:24.864Z,7.10
2019-02-26T23:14:54.661Z,6.98
2019-02-26T23:17:24.862Z,6.93
2019-02-26T23:19:55.177Z,6.89
2019-02-26T23:22:25.046Z,6.98
2019-02-26T23:24:54.455Z,6.90
2019-02-26T23:27:23.758Z,6.92
2019-02-26T23:29:53.257Z,7.12
2019-02-26T23:32:23.430Z,7.02
2019-02-26T23:35:08.772Z,7.27
2019-02-26T23:37:38.371Z,7.28
2019-02-26T23:40:09.022Z,7.09
2019-02-26T23:42:39.080Z,7.17
2019-02-26T23:45:09.527Z,7.22
2019-02-26T23:47:39.173Z,6.95
2019-02-26T23:50:08.879Z,6.88
2019-02-26T23:52:38.136Z,6.84
2019-02-26T23:55:13.108Z,6.76
2019-02-26T23:57:40.011Z,6.81
